createdAt,value
2023-05-09T00:00:34.062Z,7.93
2023-05-09T00:10:59.747Z,7.69
2023-05-09T00:21:25.538Z,7.57
2023-05-09T00:31:51.605Z,7.37
2023-05-09T00:42:17.611Z,7.42
2023-05-09T00:52:43.981Z,7.48
2023-05-09T01:03:10.194Z,7.35
2023-05-09T01:13:46.157Z,7.30
2023-05-09T01:24:35.252Z,7.45
2023-05-09T01:35:04.582Z,7.38
2023-05-09T01:45:32.496Z,7.48
2023-05-09T01:56:00.438Z,7.49
2023-05-09T02:06:29.918Z,7.38
2023-05-09T02:16:55.694Z,7.26
2023-05-09T02:27:22.470Z,7.23
2023-05-09T02:37:48.822Z,7.22
2023-05-09T02:48:14.729Z,7.10
2023-05-09T02:58:41.071Z,7.00
2023-05-09T03:09:08.374Z,6.89
2023-05-09T03:19:35.109Z,6.67
2023-05-09T03:30:00.638Z,6.57
2023-05-09T03:40:26.540Z,6.58
2023-05-09T03:50:52.651Z,6.57
2023-05-09T04:01:18.847Z,6.55
2023-05-09T04:11:44.619Z,6.55
2023-05-09T04:22:11.350Z,6.41
2023-05-09T04:32:36.949Z,6.45
2023-05-09T04:43:03.470Z,6.57
2023-05-09T04:53:30.005Z,6.88
2023-05-09T05:03:56.119Z,7.70
2023-05-09T05:14:21.751Z,8.59
2023-05-09T05:24:47.798Z,9.36
2023-05-09T05:35:14.341Z,10.15
2023-05-09T05:45:40.858Z,10.72
2023-05-09T05:56:07.256Z,11.10
2023-05-09T06:06:33.496Z,11.57
2023-05-09T06:16:59.844Z,12.16
2023-05-09T06:27:25.839Z,12.38
2023-05-09T06:37:51.658Z,12.60
2023-05-09T06:48:17.397Z,12.71
2023-05-09T06:58:43.465Z,13.01
2023-05-09T07:09:09.848Z,12.90
2023-05-09T07:19:35.801Z,12.96
2023-05-09T07:30:01.698Z,13.00
2023-05-09T07:40:27.593Z,13.11
2023-05-09T07:50:53.557Z,13.36
2023-05-09T08:01:19.244Z,13.65
2023-05-09T08:11:45.415Z,13.57
2023-05-09T08:22:17.452Z,13.46
2023-05-09T08:32:43.866Z,13.36
2023-05-09T08:43:11.800Z,13.23
2023-05-09T08:53:38.196Z,13.34
2023-05-09T09:04:04.479Z,13.42
2023-05-09T09:14:32.680Z,13.58
2023-05-09T09:24:58.097Z,13.70
2023-05-09T09:35:25.009Z,13.87
2023-05-09T09:45:55.146Z,14.18
2023-05-09T09:56:22.393Z,14.40
2023-05-09T10:06:57.402Z,14.52
2023-05-09T10:17:25.096Z,14.71
2023-05-09T10:27:54.755Z,14.79
2023-05-09T10:38:21.630Z,14.65
2023-05-09T10:48:49.077Z,14.93
2023-05-09T10:59:37.929Z,15.06
2023-05-09T11:10:17.754Z,15.18
2023-05-09T11:20:52.687Z,15.32
2023-05-09T11:31:20.134Z,15.43
2023-05-09T11:41:48.522Z,15.63
2023-05-09T11:52:14.391Z,15.66
2023-05-09T12:02:40.678Z,15.74
2023-05-09T12:13:06.650Z,15.91
2023-05-09T12:23:37.177Z,15.97
2023-05-09T12:34:05.056Z,16.04
2023-05-09T12:44:30.794Z,16.09
2023-05-09T12:55:06.734Z,16.07
2023-05-09T13:05:34.902Z,16.08
2023-05-09T13:16:00.805Z,16.07
2023-05-09T13:26:27.690Z,16.09
2023-05-09T13:36:53.841Z,16.15
2023-05-09T13:47:19.861Z,16.11
2023-05-09T13:57:46.369Z,16.06
2023-05-09T14:08:12.735Z,16.07
2023-05-09T14:18:38.551Z,16.15
2023-05-09T14:29:05.295Z,16.17
2023-05-09T14:39:31.212Z,16.17
2023-05-09T14:49:57.004Z,16.14
2023-05-09T15:00:24.374Z,16.10
2023-05-09T15:10:51.054Z,16.13
2023-05-09T15:21:17.491Z,16.13
2023-05-09T15:31:43.902Z,16.10
2023-05-09T15:42:11.284Z,16.09
2023-05-09T15:52:37.558Z,16.05
2023-05-09T16:03:03.679Z,15.93
2023-05-09T16:13:30.128Z,15.82
2023-05-09T16:23:58.097Z,15.78
2023-05-09T16:34:23.645Z,15.69
2023-05-09T16:44:49.966Z,15.63
2023-05-09T16:55:16.492Z,15.51
2023-05-09T17:05:42.496Z,15.44
2023-05-09T17:16:09.035Z,15.36
2023-05-09T17:26:35.122Z,15.30
2023-05-09T17:37:02.271Z,15.15
2023-05-09T17:47:30.012Z,14.99
2023-05-09T17:57:55.933Z,14.82
2023-05-09T18:08:22.554Z,14.61
2023-05-09T18:18:48.513Z,14.42
2023-05-09T18:29:14.175Z,14.31
2023-05-09T18:39:39.940Z,14.24
2023-05-09T18:50:07.140Z,14.06
2023-05-09T19:00:34.226Z,13.92
2023-05-09T19:10:59.620Z,13.96
2023-05-09T19:21:25.708Z,13.81
2023-05-09T19:31:51.300Z,13.63
2023-05-09T19:42:17.104Z,13.51
2023-05-09T19:52:43.453Z,13.36
2023-05-09T20:03:09.512Z,13.28
2023-05-09T20:13:35.195Z,13.17
2023-05-09T20:24:00.849Z,13.09
2023-05-09T20:34:27.503Z,12.98
2023-05-09T20:44:54.750Z,12.93
2023-05-09T20:55:21.159Z,12.90
2023-05-09T21:05:46.799Z,12.75
2023-05-09T21:16:12.799Z,12.61
2023-05-09T21:26:38.622Z,12.61
2023-05-09T21:37:04.433Z,12.60
2023-05-09T21:47:30.393Z,12.63
2023-05-09T21:57:56.621Z,12.62
2023-05-09T22:08:21.999Z,12.53
2023-05-09T22:18:47.924Z,12.44
2023-05-09T22:29:16.643Z,12.43
2023-05-09T22:39:42.176Z,12.29
2023-05-09T23:00:52.906Z,12.04
2023-05-09T23:11:18.396Z,11.85
2023-05-09T23:21:44.489Z,11.70
2023-05-09T23:32:10.581Z,11.59
2023-05-09T23:42:36.243Z,11.38
2023-05-09T23:53:04.837Z,11.32
